Time;durP1;ratioP1;P1;durP2;ratioP2;P2;SDS_P1;SDS_P2;PMS_P1;PMS_P2;Temp;Humidity;BMP_temperature;BMP_pressure;BME280_temperature;BME280_humidity;BME280_pressure;Samples;Min_cycle;Max_cycle;Signal;HPM_P1;HPM_P2
2022/08/14 00:02:01;;;;;;;21.80;16.45;;;;;;;26.79;58.72;100551.78;5073864;28;20059;-82
2022/08/14 00:04:27;;;;;;;23.13;16.33;;;;;;;26.80;58.27;100539.31;5072422;28;20063;-82
2022/08/14 00:06:52;;;;;;;;;;;;;;;26.84;58.28;100541.03;5073967;28;20103;-81
2022/08/14 00:09:18;;;;;;;23.95;16.58;;;;;;;26.81;58.39;100551.78;5072517;28;19966;-82
2022/08/14 00:11:43;;;;;;;;;;;;;;;26.84;58.52;100545.47;5071855;28;20029;-80
2022/08/14 00:14:09;;;;;;;23.60;16.27;;;;;;;26.78;58.37;100542.00;5055419;28;19912;-82
2022/08/14 00:16:35;;;;;;;22.02;16.98;;;;;;;26.79;58.38;100545.56;5072473;28;20032;-82
2022/08/14 00:19:00;;;;;;;;;;;;;;;26.84;58.50;100542.81;5089044;28;20017;-82
2022/08/14 00:21:26;;;;;;;22.92;15.73;;;;;;;26.74;58.33;100526.88;5073477;28;19908;-83
2022/08/14 00:23:53;;;;;;;22.23;15.90;;;;;;;26.71;58.38;100523.38;5072828;28;20413;-83
2022/08/14 00:26:18;;;;;;;21.55;15.48;;;;;;;26.74;57.86;100520.66;5073503;28;20305;-84
2022/08/14 00:28:44;;;;;;;;;;;;;;;26.81;58.06;100523.19;5073705;28;20605;-81
2022/08/14 00:31:10;;;;;;;20.77;15.75;;;;;;;26.65;57.97;100502.03;5072611;28;20283;-82
2022/08/14 00:33:35;;;;;;;;;;;;;;;26.82;58.02;100521.41;5073521;28;20028;-82
2022/08/14 00:36:01;;;;;;;21.67;15.43;;;;;;;26.73;57.82;100514.44;5071730;28;19916;-81
2022/08/14 00:38:26;;;;;;;;;;;;;;;26.81;58.05;100508.91;5073329;28;20031;-81
2022/08/14 00:40:52;;;;;;;20.70;16.17;;;;;;;26.77;58.18;100512.56;5072209;28;19908;-81
2022/08/14 00:43:18;;;;;;;;;;;;;;;26.81;58.39;100514.28;5073447;28;20031;-83
2022/08/14 00:45:43;;;;;;;22.30;15.90;;;;;;;26.68;57.92;100502.88;5072955;28;19955;-82
2022/08/14 00:48:09;;;;;;;21.15;15.73;;;;;;;26.54;58.21;100479.00;5072699;28;20082;-82
2022/08/14 00:50:35;;;;;;;;;;;;;;;26.79;58.53;100510.75;5073185;28;20089;-81
2022/08/14 00:53:01;;;;;;;21.48;15.73;;;;;;;26.75;58.10;100512.56;5072665;28;19909;-80
2022/08/14 00:55:28;;;;;;;21.98;15.93;;;;;;;26.74;58.44;100510.81;5072542;28;20024;-82
2022/08/14 01:00:39;;;;;;;22.60;16.63;;;;;;;26.46;58.35;100458.56;5072523;28;20031;-82
2022/08/14 01:03:07;;;;;;;19.83;16.02;;;;;;;26.75;58.17;100506.34;5072368;28;20025;-82
2022/08/14 01:05:33;;;;;;;19.90;15.50;;;;;;;26.74;57.93;100499.22;5071379;28;20032;-82
2022/08/14 01:07:59;;;;;;;20.38;15.45;;;;;;;26.75;57.78;100500.97;5072503;28;20028;-82
2022/08/14 01:10:49;;;;;;;22.00;15.95;;;;;;;26.74;57.70;100501.91;5072009;28;20037;-81
2022/08/14 01:13:15;;;;;;;20.13;15.70;;;;;;;26.73;57.71;100493.00;5072048;28;20036;-82
2022/08/14 01:15:47;;;;;;;21.08;16.05;;;;;;;26.60;57.93;100478.00;5071094;28;20131;-83
2022/08/14 01:21:05;;;;;;;20.52;14.88;;;;;;;26.73;57.72;100502.81;5060677;28;20506;-83
2022/08/14 01:23:33;;;;;;;19.60;14.80;;;;;;;26.68;57.75;100492.16;5070602;28;20024;-83
2022/08/14 01:25:58;;;;;;;21.58;16.15;;;;;;;26.61;58.14;100477.13;5071087;28;20024;-83
2022/08/14 01:28:28;;;;;;;;;;;;;;;26.76;58.62;100500.97;5072528;28;20346;-84
2022/08/14 01:30:56;;;;;;;19.73;15.50;;;;;;;26.61;58.49;100482.47;5071001;28;19912;-82
2022/08/14 01:33:27;;;;;;;21.58;16.27;;;;;;;26.63;58.30;100480.66;5058362;28;20033;-82
2022/08/14 01:35:59;;;;;;;19.50;15.50;;;;;;;26.55;58.13;100466.47;5086531;28;20106;-85
2022/08/14 01:38:33;;;;;;;20.10;15.55;;;;;;;26.59;57.99;100478.94;5070849;28;20094;-83
2022/08/14 01:41:05;;;;;;;20.25;15.60;;;;;;;26.70;58.19;100497.50;5071409;28;20020;-83
2022/08/14 01:43:37;;;;;;;19.42;15.75;;;;;;;26.69;57.99;100485.91;5070739;28;20059;-82
2022/08/14 01:46:10;;;;;;;19.10;15.63;;;;;;;26.64;57.78;100478.84;5070197;28;20020;-81
2022/08/14 01:48:37;;;;;;;20.30;16.00;;;;;;;26.70;57.67;100495.72;5071748;28;20032;-81
2022/08/14 01:51:03;;;;;;;19.13;15.45;;;;;;;26.71;57.76;100499.25;5069608;28;20099;-81
2022/08/14 01:53:30;;;;;;;;;;;;;;;26.74;58.09;100497.44;5072015;28;20486;-82
2022/08/14 01:56:02;;;;;;;21.17;15.30;;;;;;;26.69;58.01;100491.28;5071016;28;19919;-82
2022/08/14 01:58:28;;;;;;;20.48;15.70;;;;;;;26.69;58.06;100495.72;5070513;28;20454;-83
2022/08/14 02:00:56;;;;;;;;;;;;;;;26.72;57.91;100491.22;5070442;28;20111;-82
2022/08/14 02:03:24;;;;;;;19.15;14.73;;;;;;;26.67;58.01;100493.09;5071474;28;19915;-81
2022/08/14 02:05:50;;;;;;;17.98;15.35;;;;;;;26.66;58.09;100491.31;5071471;28;20035;-81
2022/08/14 02:08:15;;;;;;;;;;;;;;;26.70;58.13;100490.34;5071337;28;20410;-81
2022/08/14 02:10:42;;;;;;;21.40;14.75;;;;;;;26.66;57.50;100488.63;5071187;28;19912;-81
2022/08/14 02:13:10;;;;;;;19.70;14.90;;;;;;;26.62;57.86;100478.88;5069760;28;20116;-82
2022/08/14 02:15:36;;;;;;;21.98;15.88;;;;;;;26.56;57.87;100468.22;5070940;28;20116;-82
2022/08/14 02:18:03;;;;;;;18.08;15.32;;;;;;;26.64;58.27;100477.06;5071314;28;20035;-81
2022/08/14 02:20:32;;;;;;;18.73;15.35;;;;;;;26.64;57.91;100477.06;5070929;28;20096;-81
2022/08/14 02:22:59;;;;;;;22.35;16.23;;;;;;;26.66;58.78;100483.28;5071195;28;20107;-82
2022/08/14 02:25:25;;;;;;;19.15;16.05;;;;;;;26.65;58.98;100476.16;5069643;28;21159;-81
2022/08/14 02:27:54;;;;;;;;;;;;;;;26.71;58.66;100478.75;5071553;28;20028;-81
2022/08/14 02:30:25;;;;;;;20.85;15.65;;;;;;;26.63;58.51;100469.94;5070821;28;19920;-81
2022/08/14 02:32:52;;;;;;;18.83;15.45;;;;;;;26.62;58.73;100470.84;5069729;28;20115;-81
2022/08/14 02:35:17;;;;;;;23.60;16.35;;;;;;;26.64;58.51;100466.34;5069831;28;20028;-80
2022/08/14 02:37:44;;;;;;;;;;;;;;;26.69;58.33;100467.16;5071540;28;20028;-81
2022/08/14 02:40:11;;;;;;;20.87;15.70;;;;;;;26.65;58.91;100467.22;5069904;28;19913;-82
2022/08/14 02:42:38;;;;;;;20.27;15.60;;;;;;;26.63;58.54;100464.59;5070821;28;20025;-81
2022/08/14 02:45:05;;;;;;;20.23;16.02;;;;;;;26.60;58.43;100459.28;5069617;28;20032;-81
2022/08/14 02:47:32;;;;;;;22.20;15.95;;;;;;;26.54;58.20;100451.31;5070583;28;20166;-82
2022/08/14 02:49:58;;;;;;;19.70;15.73;;;;;;;26.58;57.73;100463.75;5069683;28;20409;-82
2022/08/14 02:52:24;;;;;;;;;;;;;;;26.65;58.26;100465.44;5074712;28;20025;-81
2022/08/14 02:54:51;;;;;;;18.80;14.65;;;;;;;26.53;58.05;100453.09;5070803;28;19908;-81
2022/08/14 02:57:17;;;;;;;20.80;15.25;;;;;;;26.57;58.23;100460.22;5069446;28;20028;-81
2022/08/14 02:59:42;;;;;;;;;;;;;;;26.60;58.03;100465.50;5069534;28;20048;-80
2022/08/14 03:02:08;;;;;;;20.35;14.98;;;;;;;26.57;58.03;100465.56;5070179;28;20420;-81
2022/08/14 03:04:34;;;;;;;18.58;14.88;;;;;;;26.46;57.81;100446.09;5073359;28;20111;-81
2022/08/14 03:07:00;;;;;;;;;;;;;;;26.62;58.14;100460.13;5074915;28;20566;-82
2022/08/14 03:09:28;;;;;;;22.17;16.20;;;;;;;26.45;58.63;100455.03;5074668;28;19912;-81
2022/08/14 03:11:54;;;;;;;21.88;16.30;;;;;;;26.56;58.60;100462.88;5074577;28;20032;-83
2022/08/14 03:14:22;;;;;;;;;;;;;;;26.62;58.26;100469.97;5073869;28;20028;-82
2022/08/14 03:16:49;;;;;;;22.75;15.55;;;;;;;26.51;58.73;100462.06;5073386;28;19908;-81
2022/08/14 03:19:15;;;;;;;20.15;15.13;;;;;;;26.53;58.14;100466.50;5074751;28;20020;-82
2022/08/14 03:21:40;;;;;;;21.42;15.00;;;;;;;26.36;58.08;100429.28;5073724;28;20029;-81
2022/08/14 03:24:10;;;;;;;;;;;;;;;26.56;58.41;100463.81;5074902;28;20074;-82
2022/08/14 03:26:43;;;;;;;19.50;15.32;;;;;;;26.53;57.97;100465.63;5074449;28;19955;-81
2022/08/14 03:29:11;;;;;;;20.80;15.50;;;;;;;26.52;57.72;100469.19;5073762;28;20132;-81
2022/08/14 03:31:39;;;;;;;19.92;15.77;;;;;;;26.50;57.69;100469.25;5074177;28;20032;-81
2022/08/14 03:34:08;;;;;;;18.63;15.65;;;;;;;26.53;57.38;100471.84;5073875;28;20031;-81
2022/08/14 03:36:36;;;;;;;18.23;15.15;;;;;;;26.52;58.03;100471.88;5074209;28;20407;-81
2022/08/14 03:39:04;;;;;;;18.70;15.20;;;;;;;26.50;58.45;100471.91;5088974;28;20025;-81
2022/08/14 03:41:30;;;;;;;17.58;14.45;;;;;;;26.50;57.64;100471.91;5072834;28;20030;-81
2022/08/14 03:44:00;;;;;;;18.80;15.40;;;;;;;26.44;58.20;100457.72;5070449;28;20415;-80
2022/08/14 03:46:29;;;;;;;19.08;15.20;;;;;;;26.49;57.94;100463.91;5073805;28;20056;-81
2022/08/14 03:48:55;;;;;;;18.27;14.90;;;;;;;26.50;58.09;100468.31;5072176;28;20025;-80
2022/08/14 03:51:26;;;;;;;19.00;15.27;;;;;;;26.46;57.49;100458.56;5072643;28;20025;-82
2022/08/14 03:53:53;;;;;;;18.67;15.85;;;;;;;26.48;58.72;100468.38;5072154;28;20028;-81
2022/08/14 03:56:19;;;;;;;18.40;15.27;;;;;;;26.49;58.32;100469.25;5072276;28;20040;-81
2022/08/14 03:58:45;;;;;;;;;;;;;;;26.51;57.96;100475.47;5064759;28;20024;-81
2022/08/14 04:01:18;;;;;;;19.13;14.65;;;;;;;26.42;57.75;100460.44;5073440;28;19991;-81
2022/08/14 04:03:45;;;;;;;17.80;13.85;;;;;;;26.46;57.63;100463.94;5073262;28;20082;-81
2022/08/14 04:06:10;;;;;;;17.00;14.57;;;;;;;26.43;57.63;100467.53;5073757;28;20028;-81
2022/08/14 04:08:38;;;;;;;;;;;;;;;26.48;57.92;100471.06;5072403;28;20383;-80
2022/08/14 04:11:05;;;;;;;17.15;14.50;;;;;;;26.36;57.54;100453.38;5073727;28;20301;-80
2022/08/14 04:13:33;;;;;;;19.67;14.65;;;;;;;26.33;57.80;100458.81;5072621;28;20039;-81
2022/08/14 04:15:59;;;;;;;18.88;15.00;;;;;;;26.43;58.02;100470.22;5070513;28;20107;-80
2022/08/14 04:18:24;;;;;;;;;;;;;;;26.48;57.94;100471.06;5075740;28;20115;-82
2022/08/14 04:20:50;;;;;;;20.98;15.10;;;;;;;26.44;57.57;100468.41;5081677;28;19916;-81
2022/08/14 04:23:16;;;;;;;;;;;;;;;26.47;57.77;100468.38;5073543;28;20036;-81
2022/08/14 04:25:42;;;;;;;19.25;14.70;;;;;;;26.37;57.55;100457.84;5073495;28;19912;-82
2022/08/14 04:28:10;;;;;;;;;;;;;;;26.44;57.85;100457.72;5079160;28;20031;-82
2022/08/14 04:30:39;;;;;;;17.40;14.68;;;;;;;26.42;57.89;100460.44;5073511;28;20012;-81
2022/08/14 04:33:08;;;;;;;20.13;15.27;;;;;;;26.35;57.49;100446.28;5092759;28;20162;-82
2022/08/14 04:35:37;;;;;;;18.48;15.32;;;;;;;26.38;57.98;100456.03;5080045;28;20028;-80
2022/08/14 04:43:39;;;;;;;19.27;14.75;;;;;;;26.33;57.73;100453.44;5071630;28;20031;-83
2022/08/14 04:46:06;;;;;;;;;;;;;;;26.43;57.67;100466.66;5071706;28;20025;-82
2022/08/14 04:48:32;;;;;;;21.42;15.23;;;;;;;26.35;58.15;100461.44;5083571;28;19908;-84
2022/08/14 04:50:59;;;;;;;20.27;15.43;;;;;;;26.37;57.99;100464.97;5083735;28;20044;-82
2022/08/14 04:53:27;;;;;;;19.77;14.98;;;;;;;26.34;58.00;100465.03;5090898;28;20024;-86
2022/08/14 04:55:55;;;;;;;20.52;15.02;;;;;;;26.05;57.93;100419.97;5075155;28;20390;-83
2022/08/14 04:58:25;;;;;;;18.92;14.50;;;;;;;26.11;57.87;100431.47;5072924;28;20033;-82
2022/08/14 05:00:52;;;;;;;19.17;14.40;;;;;;;26.27;57.68;100456.22;5077623;28;20033;-84
2022/08/14 05:03:20;;;;;;;17.50;13.93;;;;;;;26.22;57.98;100446.47;5076230;28;20032;-84
2022/08/14 05:05:50;;;;;;;20.08;14.18;;;;;;;26.25;58.02;100443.78;5081919;28;20324;-82
2022/08/14 05:08:35;;;;;;;19.30;14.63;;;;;;;26.37;58.10;100456.94;5072825;28;20123;-82
2022/08/14 05:11:03;;;;;;;18.05;13.50;;;;;;;26.35;57.69;100454.31;5072459;28;20075;-82
2022/08/14 05:13:30;;;;;;;18.10;14.20;;;;;;;26.32;57.80;100450.78;5071165;28;20134;-81
2022/08/14 05:16:03;;;;;;;15.85;13.70;;;;;;;26.32;57.65;100461.50;5076036;28;20481;-83
2022/08/14 05:18:34;;;;;;;16.55;14.25;;;;;;;26.06;57.85;100409.25;5081241;28;20036;-83
2022/08/14 05:21:02;;;;;;;17.02;13.63;;;;;;;25.90;57.49;100392.53;5079696;28;20017;-82
2022/08/14 05:23:31;;;;;;;17.40;13.68;;;;;;;26.13;57.92;100424.28;5060293;28;20024;-80
2022/08/14 05:26:16;;;;;;;17.08;13.68;;;;;;;25.79;57.79;100359.69;5085905;28;20036;-85
2022/08/14 05:28:44;;;;;;;19.25;13.63;;;;;;;25.93;57.49;100388.91;5074272;28;20102;-81
2022/08/14 05:31:12;;;;;;;15.02;13.13;;;;;;;26.36;57.37;100453.38;5085818;28;20413;-82
2022/08/14 05:33:38;;;;;;;17.35;13.82;;;;;;;26.11;58.41;100409.19;5077532;28;20090;-83
2022/08/14 05:36:05;;;;;;;;;;;;;;;26.41;57.99;100453.31;5085675;28;20027;-83
2022/08/14 05:38:35;;;;;;;17.42;13.68;;;;;;;26.36;58.38;100439.13;5056328;28;19912;-84
2022/08/14 05:41:06;;;;;;;20.55;15.15;;;;;;;26.15;58.27;100403.75;5070924;28;20058;-84
2022/08/14 05:43:33;;;;;;;17.45;14.27;;;;;;;26.14;58.38;100414.47;5056896;28;20047;-82
2022/08/14 05:46:00;;;;;;;18.27;14.30;;;;;;;25.78;58.40;100350.78;5058670;28;20456;-83
2022/08/14 05:48:27;;;;;;;18.10;13.25;;;;;;;26.34;58.30;100447.16;5071674;28;20119;-82
2022/08/14 05:50:55;;;;;;;18.02;14.52;;;;;;;26.27;58.38;100424.09;5080994;28;20025;-83
2022/08/14 05:53:28;;;;;;;17.67;14.65;;;;;;;26.02;58.99;100391.47;5079811;28;20031;-83
2022/08/14 05:55:59;;;;;;;17.05;13.85;;;;;;;26.34;58.87;100443.63;5078585;28;20028;-83
2022/08/14 05:58:25;;;;;;;16.20;13.55;;;;;;;26.11;58.76;100407.38;5076154;28;20051;-84
2022/08/14 06:00:56;;;;;;;;;;;;;;;26.39;58.67;100439.97;5059724;28;20571;-84
2022/08/14 06:03:22;;;;;;;17.15;13.93;;;;;;;26.00;59.15;100383.47;5065730;28;19920;-85
2022/08/14 06:05:55;;;;;;;;;;;;;;;26.39;58.75;100434.59;5076517;28;20035;-84
2022/08/14 06:08:23;;;;;;;16.85;13.45;;;;;;;26.37;59.13;100440.88;5051893;28;19920;-85
2022/08/14 06:10:54;;;;;;;17.27;13.88;;;;;;;26.34;59.51;100427.53;5071981;28;20028;-87
2022/08/14 06:13:25;;;;;;;16.23;13.88;;;;;;;26.11;59.37;100404.69;5057267;28;20124;-84
2022/08/14 06:15:51;;;;;;;19.85;14.48;;;;;;;26.17;59.19;100417.13;5068272;28;20490;-85
2022/08/14 06:18:19;;;;;;;;;;;;;;;26.36;59.09;100440.00;5072605;28;20046;-85
2022/08/14 06:20:45;;;;;;;16.77;12.90;;;;;;;25.87;59.31;100370.28;5069313;28;19941;-84
2022/08/14 06:23:30;;;;;;;;;;;;;;;26.35;59.38;100437.34;5069560;28;20118;-83
2022/08/14 06:25:57;;;;;;;15.00;12.90;;;;;;;25.72;59.51;100344.66;5069016;28;19951;-83
2022/08/14 06:28:23;;;;;;;;;;;;;;;26.32;59.25;100446.31;5073799;28;20058;-83
2022/08/14 06:30:49;;;;;;;16.20;13.02;;;;;;;25.95;59.03;100382.66;5068706;28;19920;-83
2022/08/14 06:33:16;;;;;;;16.05;12.82;;;;;;;26.18;59.29;100429.56;5063174;28;20036;-82
2022/08/14 06:36:21;;;;;;;;;;;;;;;;;;;;;
2022/08/14 06:38:47;;;;;;;16.65;13.27;;;;;;;25.90;58.45;100372.94;5041634;28;20052;-87
2022/08/14 06:41:12;;;;;;;;;;;;;;;26.33;58.78;100452.53;5071407;28;20107;-86
2022/08/14 06:43:40;;;;;;;19.60;14.70;;;;;;;25.94;58.75;100366.63;5070664;28;19915;-87
2022/08/14 06:46:07;;;;;;;23.77;15.30;;;;;;;26.34;59.31;100446.28;5049518;28;20529;-86
2022/08/14 06:48:33;;;;;;;20.73;14.38;;;;;;;26.28;59.50;100441.91;5069897;28;20028;-84
2022/08/14 06:51:02;;;;;;;26.00;15.40;;;;;;;26.02;59.01;100420.91;5052267;28;20036;-84
2022/08/14 06:53:28;;;;;;;18.45;14.43;;;;;;;26.17;59.14;100450.09;5077790;28;20118;-84
2022/08/14 06:56:00;;;;;;;;;;;;;;;26.25;58.66;100439.28;5064819;28;20127;-84
2022/08/14 06:59:09;;;;;;;21.35;14.63;;;;;;;25.64;58.67;100334.06;5066620;28;19913;-81
2022/08/14 07:07:27;;;;;;;20.33;14.02;;;;;;;25.99;58.56;100389.75;5064979;28;20067;-83
2022/08/14 07:10:23;;;;;;;21.00;13.40;;;;;;;26.26;58.29;100442.84;5047126;28;20042;-83
2022/08/14 07:13:00;;;;;;;17.10;13.40;;;;;;;26.29;58.12;100442.78;5058500;28;20036;-84
2022/08/14 07:15:44;;;;;;;;;;;;;;;;;;;;;
2022/08/14 07:18:48;;;;;;;19.45;13.90;;;;;;;26.27;58.12;100434.81;5061649;28;20490;-84
2022/08/14 07:21:15;;;;;;;17.95;13.18;;;;;;;26.08;58.08;100406.56;5063595;28;20086;-84
2022/08/14 07:24:00;;;;;;;18.45;13.10;;;;;;;25.95;58.13;100384.44;5068486;28;20119;-84
2022/08/14 07:26:32;;;;;;;17.40;13.25;;;;;;;26.08;58.14;100393.19;5070614;28;20086;-84
2022/08/14 07:29:13;;;;;;;17.33;13.65;;;;;;;25.69;57.81;100340.22;5046109;28;20127;-84
2022/08/14 07:31:51;;;;;;;20.45;13.18;;;;;;;25.99;57.78;100384.38;5058448;28;20060;-82
2022/08/14 07:34:24;;;;;;;17.25;13.32;;;;;;;25.83;58.02;100360.53;5042584;28;20041;-83
2022/08/14 07:37:01;;;;;;;;;;;;;;;;;;;;;
2022/08/14 07:39:39;;;;;;;17.95;13.10;;;;;;;26.28;57.88;100435.69;5065188;28;20516;-84
2022/08/14 07:42:11;;;;;;;17.42;13.35;;;;;;;26.08;57.85;100402.09;5059784;28;20033;-85
2022/08/14 07:45:11;;;;;;;17.48;13.05;;;;;;;26.21;57.78;100418.84;5065378;28;20051;-85
2022/08/14 07:47:51;;;;;;;16.48;12.55;;;;;;;26.30;57.55;100445.44;5064905;28;20482;-85
2022/08/14 07:50:31;;;;;;;17.50;12.90;;;;;;;26.10;57.69;100407.41;5052602;28;20094;-84
2022/08/14 07:52:57;;;;;;;18.30;12.95;;;;;;;26.27;57.76;100436.56;5069611;28;20127;-84
2022/08/14 07:55:45;;;;;;;17.15;12.68;;;;;;;25.75;57.31;100350.81;5071970;28;20132;-85
2022/08/14 07:58:48;;;;;;;16.95;12.55;;;;;;;26.14;57.65;100415.38;5071618;28;20036;-85
2022/08/14 08:01:17;;;;;;;17.85;13.07;;;;;;;25.99;57.48;100383.47;5072542;28;20521;-85
2022/08/14 08:04:13;;;;;;;19.30;13.35;;;;;;;26.35;57.40;100442.69;5050891;28;20028;-86
2022/08/14 08:06:54;;;;;;;18.83;13.45;;;;;;;25.80;57.35;100342.72;5048097;28;20035;-82
2022/08/14 08:09:27;;;;;;;18.58;13.90;;;;;;;26.35;57.52;100443.59;5031779;28;20024;-83
2022/08/14 08:11:57;;;;;;;18.88;13.25;;;;;;;25.76;57.69;100332.97;5012797;28;20044;-83
2022/08/14 08:14:24;;;;;;;17.85;13.07;;;;;;;25.83;57.36;100353.38;5060900;28;20055;-82
2022/08/14 08:16:49;;;;;;;19.27;13.15;;;;;;;26.00;57.50;100372.75;5073877;28;20098;-83
2022/08/14 08:19:17;;;;;;;;;;;;;;;26.36;57.49;100423.94;5072890;28;20485;-83
2022/08/14 08:21:44;;;;;;;19.77;13.60;;;;;;;25.98;57.54;100368.34;5073146;28;19919;-84
2022/08/14 08:24:10;;;;;;;18.50;13.18;;;;;;;26.17;57.32;100396.56;5074408;28;20013;-84
2022/08/14 08:26:35;;;;;;;;;;;;;;;26.34;57.31;100423.06;5072589;28;20035;-84
2022/08/14 08:29:03;;;;;;;19.67;13.68;;;;;;;26.23;57.33;100405.44;5069585;28;19921;-83
2022/08/14 08:31:29;;;;;;;18.10;13.35;;;;;;;26.36;57.46;100431.09;5070583;28;20035;-83
2022/08/14 08:33:56;;;;;;;;;;;;;;;26.39;57.23;100428.34;5069026;28;20024;-81
2022/08/14 08:36:38;;;;;;;;;;;;;;;26.38;57.26;100426.59;5083753;28;19920;-88
2022/08/14 08:39:04;;;;;;;18.05;13.15;;;;;;;26.11;57.48;100387.78;5053065;28;19912;-84
2022/08/14 08:41:38;;;;;;;;;;;;;;;26.35;57.35;100430.22;5083155;28;20123;-84
2022/08/14 08:44:04;;;;;;;19.02;13.65;;;;;;;26.12;57.32;100384.16;5071628;28;19912;-84
2022/08/14 08:46:30;;;;;;;18.13;13.05;;;;;;;26.36;57.24;100421.25;5071686;28;20477;-86
2022/08/14 08:48:59;;;;;;;;;;;;;;;26.38;57.01;100424.78;5070475;28;20141;-85
2022/08/14 08:51:37;;;;;;;21.30;12.77;;;;;;;26.28;57.30;100411.59;5069258;28;19939;-84
2022/08/14 08:54:17;;;;;;;20.02;13.07;;;;;;;26.24;57.36;100401.84;5065255;28;20513;-85
2022/08/14 08:56:45;;;;;;;18.85;12.75;;;;;;;26.13;57.09;100385.94;5069060;28;20498;-84
2022/08/14 08:59:21;;;;;;;16.20;12.23;;;;;;;25.91;57.43;100345.28;5071756;28;20081;-84
2022/08/14 09:01:59;;;;;;;17.23;12.55;;;;;;;25.83;57.03;100332.00;5050961;28;20081;-82
2022/08/14 09:04:43;;;;;;;18.48;12.77;;;;;;;26.15;57.12;100378.78;5069050;28;20024;-83
2022/08/14 09:07:09;;;;;;;19.52;12.93;;;;;;;26.14;57.03;100367.19;5070798;28;20027;-83
2022/08/14 09:09:50;;;;;;;16.38;11.98;;;;;;;25.97;57.21;100347.84;5072322;28;20047;-83
2022/08/14 09:12:16;;;;;;;16.05;12.13;;;;;;;26.11;56.93;100355.66;5070911;28;20027;-81
2022/08/14 09:14:43;;;;;;;16.90;12.52;;;;;;;26.04;56.98;100352.19;5071215;28;20062;-82
2022/08/14 09:17:08;;;;;;;;;;;;;;;26.35;56.84;100398.09;5071358;28;20032;-83
2022/08/14 09:19:38;;;;;;;16.42;12.00;;;;;;;26.23;57.21;100370.63;5070643;28;19915;-84
2022/08/14 09:22:05;;;;;;;15.90;12.25;;;;;;;26.03;57.06;100333.50;5072035;28;20016;-82
2022/08/14 09:24:31;;;;;;;16.42;12.18;;;;;;;26.12;56.87;100355.63;5070258;28;20024;-83
2022/08/14 09:26:57;;;;;;;17.48;11.88;;;;;;;26.27;56.84;100373.22;5068087;28;20032;-83
2022/08/14 09:29:22;;;;;;;;;;;;;;;26.34;56.52;100379.34;5070281;28;20040;-81
2022/08/14 09:31:51;;;;;;;17.08;12.20;;;;;;;26.32;56.42;100384.72;5070142;28;20301;-82
2022/08/14 09:34:20;;;;;;;15.93;11.90;;;;;;;26.31;56.40;100377.63;5070685;28;20028;-82
2022/08/14 09:36:56;;;;;;;17.75;12.73;;;;;;;26.32;56.18;100378.50;5071824;28;20082;-82
2022/08/14 09:39:33;;;;;;;17.65;12.27;;;;;;;26.32;56.34;100378.50;5058289;28;20032;-81
2022/08/14 09:42:11;;;;;;;16.60;12.07;;;;;;;26.26;56.14;100365.22;5078155;28;20417;-82
2022/08/14 09:44:48;;;;;;;16.75;11.90;;;;;;;26.33;56.07;100369.53;5059131;28;20029;-82
2022/08/14 09:47:14;;;;;;;15.70;11.23;;;;;;;26.34;55.88;100371.31;5063523;28;20033;-82
2022/08/14 09:49:41;;;;;;;;;;;;;;;26.35;56.28;100371.31;5073537;28;20025;-82
2022/08/14 09:52:07;;;;;;;16.48;11.55;;;;;;;26.32;56.17;100366.00;5073147;28;19956;-82
2022/08/14 09:54:39;;;;;;;;;;;;;;;26.33;56.38;100364.19;5078154;28;20059;-81
2022/08/14 09:57:08;;;;;;;16.15;11.95;;;;;;;26.31;56.00;100363.34;5095088;28;19908;-83
2022/08/14 09:59:46;;;;;;;14.70;11.55;;;;;;;26.31;56.27;100355.31;5086295;28;20028;-83
2022/08/14 10:02:28;;;;;;;17.73;12.35;;;;;;;26.33;56.07;100353.47;5038339;28;20094;-84
2022/08/14 10:05:01;;;;;;;14.43;11.32;;;;;;;26.32;55.87;100357.09;5072090;28;20028;-82
2022/08/14 10:07:49;;;;;;;15.13;11.73;;;;;;;26.15;55.92;100326.13;5071204;28;20033;-83
2022/08/14 10:10:39;;;;;;;16.27;12.23;;;;;;;26.08;56.19;100310.22;5038188;28;20036;-82
2022/08/14 10:13:07;;;;;;;16.05;12.30;;;;;;;26.31;55.93;100344.59;5070844;28;20116;-84
2022/08/14 10:15:37;;;;;;;15.32;11.52;;;;;;;26.08;55.93;100296.84;5086456;28;20025;-84
2022/08/14 10:18:15;;;;;;;16.95;12.32;;;;;;;26.29;55.83;100336.63;5070101;28;20021;-84
2022/08/14 10:20:59;;;;;;;17.35;11.95;;;;;;;26.03;56.07;100280.84;5064874;28;20027;-83
2022/08/14 10:23:28;;;;;;;16.00;11.70;;;;;;;26.02;55.68;100272.88;5080055;28;20060;-82
2022/08/14 10:26:03;;;;;;;17.25;12.00;;;;;;;25.99;55.84;100280.03;5072693;28;20090;-83
2022/08/14 10:28:43;;;;;;;14.27;11.43;;;;;;;26.34;56.02;100340.06;5053245;28;20036;-84
2022/08/14 10:31:33;;;;;;;19.15;11.82;;;;;;;26.22;55.70;100320.69;5072605;28;20041;-83
2022/08/14 10:34:06;;;;;;;16.58;11.60;;;;;;;26.35;55.53;100339.19;5070355;28;20028;-83
2022/08/14 10:36:43;;;;;;;17.00;11.88;;;;;;;26.13;55.72;100309.22;5072710;28;20103;-83
2022/08/14 10:39:24;;;;;;;16.40;11.57;;;;;;;26.29;55.67;100331.25;5068793;28;20520;-85
2022/08/14 10:42:06;;;;;;;18.05;11.77;;;;;;;26.11;55.68;100296.78;5065567;28;20545;-83
2022/08/14 10:44:45;;;;;;;15.88;11.88;;;;;;;26.08;55.43;100288.81;5072895;28;20112;-85
2022/08/14 10:47:12;;;;;;;16.35;12.02;;;;;;;26.18;55.31;100306.47;5064807;28;20417;-83
2022/08/14 10:49:48;;;;;;;15.88;12.13;;;;;;;26.36;55.47;100340.06;5068778;28;20013;-83
2022/08/14 10:52:41;;;;;;;17.23;11.98;;;;;;;25.99;55.39;100258.63;5053372;28;20398;-83
2022/08/14 10:55:13;;;;;;;17.70;11.30;;;;;;;26.08;55.21;100275.44;5070021;28;20041;-82
2022/08/14 10:57:52;;;;;;;16.08;12.32;;;;;;;26.38;55.26;100314.16;5071097;28;20055;-83
2022/08/14 11:00:20;;;;;;;20.42;12.45;;;;;;;26.02;55.57;100257.69;5052398;28;20043;-83
2022/08/14 11:02:57;;;;;;;17.23;11.60;;;;;;;26.02;55.21;100264.84;5079344;28;20028;-82
2022/08/14 11:05:26;;;;;;;16.77;11.68;;;;;;;26.33;55.28;100308.88;5071589;28;20103;-82
2022/08/14 11:07:54;;;;;;;19.63;12.60;;;;;;;26.38;56.08;100317.69;5071897;28;20036;-82
2022/08/14 11:10:22;;;;;;;16.42;12.23;;;;;;;26.32;55.48;100311.56;5073292;28;20036;-82
2022/08/14 11:12:51;;;;;;;15.63;11.75;;;;;;;26.29;55.53;100301.81;5077896;28;20064;-84
2022/08/14 11:15:26;;;;;;;18.73;12.13;;;;;;;25.86;55.98;100227.59;5073381;28;20029;-82
2022/08/14 11:17:52;;;;;;;16.60;12.68;;;;;;;26.11;56.25;100276.25;5071023;28;20054;-82
2022/08/14 11:20:20;;;;;;;17.58;12.90;;;;;;;26.43;55.66;100320.28;5070738;28;20409;-82
2022/08/14 11:22:46;;;;;;;21.55;16.20;;;;;;;26.32;56.57;100303.53;5065422;28;20478;-82
2022/08/14 11:25:13;;;;;;;;;;;;;;;26.44;56.60;100321.16;5075197;28;20107;-82
2022/08/14 11:27:44;;;;;;;19.65;13.55;;;;;;;26.27;56.32;100302.72;5074718;28;19913;-81
2022/08/14 11:30:15;;;;;;;20.40;14.38;;;;;;;26.42;56.77;100313.19;5074347;28;20616;-82
2022/08/14 11:32:43;;;;;;;20.92;15.02;;;;;;;26.30;56.06;100284.81;5085388;28;20035;-83
2022/08/14 11:35:33;;;;;;;20.70;15.02;;;;;;;26.39;56.48;100298.06;5071186;28;20379;-84
2022/08/14 11:38:01;;;;;;;20.73;15.25;;;;;;;26.03;56.77;100227.34;5035472;28;20087;-82
2022/08/14 11:40:33;;;;;;;20.90;14.52;;;;;;;26.01;56.70;100218.44;5063781;28;20036;-81
2022/08/14 11:43:01;;;;;;;20.13;14.73;;;;;;;26.08;56.47;100212.09;5080660;28;20036;-82
2022/08/14 11:45:31;;;;;;;19.10;14.15;;;;;;;26.07;57.00;100207.63;5053441;28;20413;-83
2022/08/14 11:47:58;;;;;;;21.65;14.95;;;;;;;26.23;57.16;100231.47;5073092;28;20031;-83
2022/08/14 11:50:29;;;;;;;23.10;15.23;;;;;;;26.41;57.17;100253.38;5072745;28;20047;-82
2022/08/14 11:53:05;;;;;;;20.85;14.52;;;;;;;26.36;57.18;100244.56;5073278;28;20031;-83
2022/08/14 11:55:37;;;;;;;19.37;14.63;;;;;;;26.03;56.87;100184.53;5072777;28;20165;-82
2022/08/14 11:58:10;;;;;;;24.08;14.50;;;;;;;26.59;57.42;100273.59;5075963;28;20486;-82
2022/08/14 12:00:47;;;;;;;21.08;14.63;;;;;;;26.25;57.15;100214.44;5074920;28;20016;-83